sensor_id;sensor_type;location;lat;lon;timestamp;pressure;altitude;pressure_sealevel;temperature;humidity
74103;BME280;62853;46.166;3.640;2024-03-08T00:00:32;101599.31;;;8.17;100.00
74103;BME280;62853;46.166;3.640;2024-03-08T00:02:58;101600.28;;;8.15;100.00
74103;BME280;62853;46.166;3.640;2024-03-08T00:05:24;101602.84;;;8.16;100.00
74103;BME280;62853;46.166;3.640;2024-03-08T00:07:49;101595.84;;;8.17;100.00
74103;BME280;62853;46.166;3.640;2024-03-08T00:10:14;101594.97;;;8.16;100.00
74103;BME280;62853;46.166;3.640;2024-03-08T00:12:42;101596.78;;;8.14;100.00
74103;BME280;62853;46.166;3.640;2024-03-08T00:15:11;101592.44;;;8.13;100.00
74103;BME280;62853;46.166;3.640;2024-03-08T00:17:39;101589.88;;;8.12;100.00
74103;BME280;62853;46.166;3.640;2024-03-08T00:20:06;101588.09;;;8.12;100.00
74103;BME280;62853;46.166;3.640;2024-03-08T00:22:37;101589.06;;;8.10;100.00
74103;BME280;62853;46.166;3.640;2024-03-08T00:25:07;101582.09;;;8.09;100.00
74103;BME280;62853;46.166;3.640;2024-03-08T00:27:35;101577.81;;;8.06;100.00
74103;BME280;62853;46.166;3.640;2024-03-08T00:30:01;101581.28;;;8.07;100.00
74103;BME280;62853;46.166;3.640;2024-03-08T00:32:27;101579.56;;;8.06;100.00
74103;BME280;62853;46.166;3.640;2024-03-08T00:34:57;101582.09;;;8.09;100.00
74103;BME280;62853;46.166;3.640;2024-03-08T00:37:22;101569.81;;;8.09;100.00
74103;BME280;62853;46.166;3.640;2024-03-08T00:39:51;101567.19;;;8.09;100.00
74103;BME280;62853;46.166;3.640;2024-03-08T00:42:20;101568.38;;;8.00;100.00
74103;BME280;62853;46.166;3.640;2024-03-08T00:44:46;101569.34;;;7.98;100.00
74103;BME280;62853;46.166;3.640;2024-03-08T00:47:13;101562.38;;;7.97;100.00
74103;BME280;62853;46.166;3.640;2024-03-08T00:49:41;101560.75;;;7.93;100.00
74103;BME280;62853;46.166;3.640;2024-03-08T00:52:06;101558.09;;;7.94;100.00
74103;BME280;62853;46.166;3.640;2024-03-08T00:54:35;101565.78;;;7.99;100.00
74103;BME280;62853;46.166;3.640;2024-03-08T00:57:03;101564.94;;;7.98;100.00
74103;BME280;62853;46.166;3.640;2024-03-08T00:59:30;101556.31;;;7.95;100.00
74103;BME280;62853;46.166;3.640;2024-03-08T01:01:58;101551.16;;;7.92;100.00
74103;BME280;62853;46.166;3.640;2024-03-08T01:04:24;101553.78;;;7.92;100.00
74103;BME280;62853;46.166;3.640;2024-03-08T01:06:51;101551.22;;;7.90;100.00
74103;BME280;62853;46.166;3.640;2024-03-08T01:09:16;101541.69;;;7.88;100.00
74103;BME280;62853;46.166;3.640;2024-03-08T01:11:42;101545.25;;;7.85;100.00
74103;BME280;62853;46.166;3.640;2024-03-08T01:14:08;101539.97;;;7.87;100.00
74103;BME280;62853;46.166;3.640;2024-03-08T01:16:33;101541.69;;;7.88;100.00
74103;BME280;62853;46.166;3.640;2024-03-08T01:18:59;101535.53;;;7.89;100.00
74103;BME280;62853;46.166;3.640;2024-03-08T01:21:24;101535.63;;;7.86;100.00
74103;BME280;62853;46.166;3.640;2024-03-08T01:23:50;101534.91;;;7.80;100.00
74103;BME280;62853;46.166;3.640;2024-03-08T01:26:15;101533.25;;;7.78;100.00
74103;BME280;62853;46.166;3.640;2024-03-08T01:28:41;101532.34;;;7.79;100.00
74103;BME280;62853;46.166;3.640;2024-03-08T01:31:06;101531.44;;;7.80;100.00
74103;BME280;62853;46.166;3.640;2024-03-08T01:33:32;101532.28;;;7.80;100.00
74103;BME280;62853;46.166;3.640;2024-03-08T01:35:58;101526.19;;;7.80;100.00
74103;BME280;62853;46.166;3.640;2024-03-08T01:38:23;101526.34;;;7.75;100.00
74103;BME280;62853;46.166;3.640;2024-03-08T01:40:49;101522.91;;;7.73;100.00
74103;BME280;62853;46.166;3.640;2024-03-08T01:43:24;101521.25;;;7.71;100.00
74103;BME280;62853;46.166;3.640;2024-03-08T01:45:50;101510.88;;;7.68;100.00
74103;BME280;62853;46.166;3.640;2024-03-08T01:48:17;101505.56;;;7.69;100.00
74103;BME280;62853;46.166;3.640;2024-03-08T01:50:43;101506.41;;;7.70;100.00
74103;BME280;62853;46.166;3.640;2024-03-08T01:53:09;101505.53;;;7.71;100.00
74103;BME280;62853;46.166;3.640;2024-03-08T01:55:37;101504.69;;;7.69;100.00
74103;BME280;62853;46.166;3.640;2024-03-08T01:58:05;101499.41;;;7.70;100.00
74103;BME280;62853;46.166;3.640;2024-03-08T02:00:32;101496.78;;;7.70;100.00
74103;BME280;62853;46.166;3.640;2024-03-08T02:02:58;101495.97;;;7.68;100.00
74103;BME280;62853;46.166;3.640;2024-03-08T02:05:23;101504.78;;;7.66;100.00
74103;BME280;62853;46.166;3.640;2024-03-08T02:07:49;101493.44;;;7.65;100.00
74103;BME280;62853;46.166;3.640;2024-03-08T02:10:15;101490.06;;;7.61;100.00
74103;BME280;62853;46.166;3.640;2024-03-08T02:12:41;101489.22;;;7.61;100.00
74103;BME280;62853;46.166;3.640;2024-03-08T02:15:07;101493.59;;;7.60;100.00
74103;BME280;62853;46.166;3.640;2024-03-08T02:17:33;101484.94;;;7.58;100.00
74103;BME280;62853;46.166;3.640;2024-03-08T02:20:01;101485.91;;;7.56;100.00
74103;BME280;62853;46.166;3.640;2024-03-08T02:22:30;101485.06;;;7.54;100.00
74103;BME280;62853;46.166;3.640;2024-03-08T02:24:58;101479.03;;;7.52;100.00
74103;BME280;62853;46.166;3.640;2024-03-08T02:27:26;101472.94;;;7.51;100.00
74103;BME280;62853;46.166;3.640;2024-03-08T02:29:54;101480.78;;;7.51;100.00
74103;BME280;62853;46.166;3.640;2024-03-08T02:32:23;101472.25;;;7.44;100.00
74103;BME280;62853;46.166;3.640;2024-03-08T02:34:49;101466.97;;;7.46;100.00
74103;BME280;62853;46.166;3.640;2024-03-08T02:37:15;101460.84;;;7.47;100.00
74103;BME280;62853;46.166;3.640;2024-03-08T02:39:40;101462.63;;;7.45;100.00
74103;BME280;62853;46.166;3.640;2024-03-08T02:42:06;101457.47;;;7.42;100.00
74103;BME280;62853;46.166;3.640;2024-03-08T02:44:32;101451.44;;;7.40;100.00
74103;BME280;62853;46.166;3.640;2024-03-08T02:46:59;101453.28;;;7.36;100.00
74103;BME280;62853;46.166;3.640;2024-03-08T02:49:25;101452.59;;;7.31;100.00
74103;BME280;62853;46.166;3.640;2024-03-08T02:51:52;101446.59;;;7.28;100.00
74103;BME280;62853;46.166;3.640;2024-03-08T02:54:17;101439.66;;;7.25;100.00
74103;BME280;62853;46.166;3.640;2024-03-08T02:56:44;101437.16;;;7.22;100.00
74103;BME280;62853;46.166;3.640;2024-03-08T02:59:12;101436.28;;;7.21;100.00
74103;BME280;62853;46.166;3.640;2024-03-08T03:01:38;101433.84;;;7.17;100.00
74103;BME280;62853;46.166;3.640;2024-03-08T03:04:04;101429.59;;;7.13;100.00
74103;BME280;62853;46.166;3.640;2024-03-08T03:06:29;101430.38;;;7.15;100.00
74103;BME280;62853;46.166;3.640;2024-03-08T03:08:54;101424.22;;;7.17;100.00
74103;BME280;62853;46.166;3.640;2024-03-08T03:11:22;101416.34;;;7.17;100.00
74103;BME280;62853;46.166;3.640;2024-03-08T03:13:48;101416.31;;;7.19;100.00
74103;BME280;62853;46.166;3.640;2024-03-08T03:16:17;101409.34;;;7.18;100.00
74103;BME280;62853;46.166;3.640;2024-03-08T03:18:45;101407.63;;;7.17;100.00
74103;BME280;62853;46.166;3.640;2024-03-08T03:21:10;101412.88;;;7.17;100.00
74103;BME280;62853;46.166;3.640;2024-03-08T03:23:37;101410.41;;;7.12;100.00
74103;BME280;62853;46.166;3.640;2024-03-08T03:26:05;101414.00;;;7.08;100.00
74103;BME280;62853;46.166;3.640;2024-03-08T03:28:32;101410.50;;;7.09;100.00
74103;BME280;62853;46.166;3.640;2024-03-08T03:30:58;101409.50;;;7.12;100.00
74103;BME280;62853;46.166;3.640;2024-03-08T03:33:24;101400.81;;;7.11;100.00
74103;BME280;62853;46.166;3.640;2024-03-08T03:35:50;101404.34;;;7.10;100.00
74103;BME280;62853;46.166;3.640;2024-03-08T03:38:17;101397.47;;;7.06;100.00
74103;BME280;62853;46.166;3.640;2024-03-08T03:40:42;101396.59;;;7.07;100.00
74103;BME280;62853;46.166;3.640;2024-03-08T03:43:10;101399.34;;;7.02;100.00
74103;BME280;62853;46.166;3.640;2024-03-08T03:45:36;101395.88;;;7.02;100.00
74103;BME280;62853;46.166;3.640;2024-03-08T03:48:06;101400.09;;;7.06;100.00
74103;BME280;62853;46.166;3.640;2024-03-08T03:50:32;101393.03;;;7.08;100.00
74103;BME280;62853;46.166;3.640;2024-03-08T03:52:59;101388.78;;;7.05;100.00
74103;BME280;62853;46.166;3.640;2024-03-08T03:55:25;101394.00;;;7.05;100.00
74103;BME280;62853;46.166;3.640;2024-03-08T03:57:50;101389.72;;;7.03;100.00
74103;BME280;62853;46.166;3.640;2024-03-08T04:00:16;101388.03;;;7.02;100.00
74103;BME280;62853;46.166;3.640;2024-03-08T04:02:41;101384.69;;;6.97;100.00
74103;BME280;62853;46.166;3.640;2024-03-08T04:05:08;101374.25;;;6.95;100.00
74103;BME280;62853;46.166;3.640;2024-03-08T04:07:34;101381.19;;;6.96;100.00
74103;BME280;62853;46.166;3.640;2024-03-08T04:10:03;101378.56;;;6.96;100.00
74103;BME280;62853;46.166;3.640;2024-03-08T04:12:31;101373.50;;;6.92;100.00
74103;BME280;62853;46.166;3.640;2024-03-08T04:14:57;101373.59;;;6.88;100.00
74103;BME280;62853;46.166;3.640;2024-03-08T04:17:23;101375.31;;;6.88;100.00
74103;BME280;62853;46.166;3.640;2024-03-08T04:19:49;101370.16;;;6.86;100.00
74103;BME280;62853;46.166;3.640;2024-03-08T04:22:15;101372.72;;;6.88;100.00
74103;BME280;62853;46.166;3.640;2024-03-08T04:24:41;101372.56;;;6.93;100.00
74103;BME280;62853;46.166;3.640;2024-03-08T04:27:07;101365.66;;;6.92;100.00
74103;BME280;62853;46.166;3.640;2024-03-08T04:29:32;101361.44;;;6.86;100.00
74103;BME280;62853;46.166;3.640;2024-03-08T04:31:59;101356.28;;;6.83;100.00
74103;BME280;62853;46.166;3.640;2024-03-08T04:34:25;101353.84;;;6.78;100.00
74103;BME280;62853;46.166;3.640;2024-03-08T04:36:50;101364.44;;;6.74;100.00
74103;BME280;62853;46.166;3.640;2024-03-08T04:39:16;101363.72;;;6.68;100.00
74103;BME280;62853;46.166;3.640;2024-03-08T04:41:43;101356.63;;;6.72;100.00
74103;BME280;62853;46.166;3.640;2024-03-08T04:44:10;101360.84;;;6.76;100.00
74103;BME280;62853;46.166;3.640;2024-03-08T04:46:36;101357.44;;;6.74;100.00
74103;BME280;62853;46.166;3.640;2024-03-08T04:49:01;101350.34;;;6.78;100.00
74103;BME280;62853;46.166;3.640;2024-03-08T04:51:27;101345.06;;;6.79;100.00
74103;BME280;62853;46.166;3.640;2024-03-08T04:53:52;101349.47;;;6.77;100.00
74103;BME280;62853;46.166;3.640;2024-03-08T04:56:18;101346.13;;;6.74;100.00
74103;BME280;62853;46.166;3.640;2024-03-08T04:58:44;101341.72;;;6.74;100.00
74103;BME280;62853;46.166;3.640;2024-03-08T05:01:12;101343.41;;;6.77;100.00
74103;BME280;62853;46.166;3.640;2024-03-08T05:03:37;101343.34;;;6.78;100.00
74103;BME280;62853;46.166;3.640;2024-03-08T05:06:03;101337.19;;;6.79;100.00
74103;BME280;62853;46.166;3.640;2024-03-08T05:08:29;101333.81;;;6.76;100.00
74103;BME280;62853;46.166;3.640;2024-03-08T05:10:55;101332.97;;;6.75;100.00
74103;BME280;62853;46.166;3.640;2024-03-08T05:13:20;101333.91;;;6.73;100.00
74103;BME280;62853;46.166;3.640;2024-03-08T05:15:49;101326.09;;;6.71;100.00
74103;BME280;62853;46.166;3.640;2024-03-08T05:18:18;101323.59;;;6.68;100.00
74103;BME280;62853;46.166;3.640;2024-03-08T05:20:43;101323.59;;;6.68;100.00
74103;BME280;62853;46.166;3.640;2024-03-08T05:23:09;101323.56;;;6.69;100.00
74103;BME280;62853;46.166;3.640;2024-03-08T05:25:34;101325.31;;;6.69;100.00
74103;BME280;62853;46.166;3.640;2024-03-08T05:28:00;101326.22;;;6.68;100.00
74103;BME280;62853;46.166;3.640;2024-03-08T05:30:25;101325.44;;;6.64;100.00
74103;BME280;62853;46.166;3.640;2024-03-08T05:32:50;101322.97;;;6.60;100.00
74103;BME280;62853;46.166;3.640;2024-03-08T05:35:16;101323.78;;;6.62;100.00
74103;BME280;62853;46.166;3.640;2024-03-08T05:37:42;101318.50;;;6.63;100.00
74103;BME280;62853;46.166;3.640;2024-03-08T05:40:08;101319.31;;;6.65;100.00
74103;BME280;62853;46.166;3.640;2024-03-08T05:42:36;101313.28;;;6.63;100.00
74103;BME280;62853;46.166;3.640;2024-03-08T05:45:03;101310.78;;;6.59;100.00
74103;BME280;62853;46.166;3.640;2024-03-08T05:47:28;101309.28;;;6.51;100.00
74103;BME280;62853;46.166;3.640;2024-03-08T05:49:54;101307.53;;;6.50;100.00
74103;BME280;62853;46.166;3.640;2024-03-08T05:52:19;101302.31;;;6.50;100.00
74103;BME280;62853;46.166;3.640;2024-03-08T05:54:45;101305.00;;;6.47;100.00
74103;BME280;62853;46.166;3.640;2024-03-08T05:57:12;101303.28;;;6.48;100.00
74103;BME280;62853;46.166;3.640;2024-03-08T05:59:39;101302.44;;;6.46;100.00
74103;BME280;62853;46.166;3.640;2024-03-08T06:02:04;101295.56;;;6.43;100.00
74103;BME280;62853;46.166;3.640;2024-03-08T06:04:30;101299.03;;;6.44;100.00
74103;BME280;62853;46.166;3.640;2024-03-08T06:06:56;101297.28;;;6.44;100.00
74103;BME280;62853;46.166;3.640;2024-03-08T06:09:22;101294.66;;;6.44;100.00
74103;BME280;62853;46.166;3.640;2024-03-08T06:11:49;101288.72;;;6.39;100.00
74103;BME280;62853;46.166;3.640;2024-03-08T06:14:14;101285.19;;;6.40;100.00
74103;BME280;62853;46.166;3.640;2024-03-08T06:16:46;101281.66;;;6.41;100.00
74103;BME280;62853;46.166;3.640;2024-03-08T06:19:12;101282.53;;;6.42;100.00
74103;BME280;62853;46.166;3.640;2024-03-08T06:21:38;101287.78;;;6.40;100.00
74103;BME280;62853;46.166;3.640;2024-03-08T06:24:04;101275.63;;;6.39;100.00
74103;BME280;62853;46.166;3.640;2024-03-08T06:26:30;101277.38;;;6.39;100.00
74103;BME280;62853;46.166;3.640;2024-03-08T06:28:56;101276.53;;;6.38;100.00
74103;BME280;62853;46.166;3.640;2024-03-08T06:31:22;101271.28;;;6.38;100.00
74103;BME280;62853;46.166;3.640;2024-03-08T06:33:47;101273.81;;;6.41;100.00
74103;BME280;62853;46.166;3.640;2024-03-08T06:36:18;101279.91;;;6.42;100.00
74103;BME280;62853;46.166;3.640;2024-03-08T06:38:49;101275.38;;;6.47;100.00
74103;BME280;62853;46.166;3.640;2024-03-08T06:41:15;101278.81;;;6.49;100.00
74103;BME280;62853;46.166;3.640;2024-03-08T06:43:42;101275.38;;;6.47;100.00
74103;BME280;62853;46.166;3.640;2024-03-08T06:46:07;101268.44;;;6.46;100.00
74103;BME280;62853;46.166;3.640;2024-03-08T06:48:32;101271.13;;;6.44;100.00
74103;BME280;62853;46.166;3.640;2024-03-08T06:50:58;101272.81;;;6.45;100.00
74103;BME280;62853;46.166;3.640;2024-03-08T06:53:23;101275.47;;;6.44;100.00
74103;BME280;62853;46.166;3.640;2024-03-08T06:55:50;101272.81;;;6.45;100.00
74103;BME280;62853;46.166;3.640;2024-03-08T06:58:15;101268.38;;;6.47;100.00
74103;BME280;62853;46.166;3.640;2024-03-08T07:00:41;101268.25;;;6.52;100.00
74103;BME280;62853;46.166;3.640;2024-03-08T07:03:08;101270.91;;;6.50;100.00
74103;BME280;62853;46.166;3.640;2024-03-08T07:05:37;101267.41;;;6.51;100.00
74103;BME280;62853;46.166;3.640;2024-03-08T07:08:03;101262.16;;;6.51;100.00
74103;BME280;62853;46.166;3.640;2024-03-08T07:10:28;101264.66;;;6.56;100.00
74103;BME280;62853;46.166;3.640;2024-03-08T07:12:54;101269.88;;;6.56;100.00
74103;BME280;62853;46.166;3.640;2024-03-08T07:15:20;101265.50;;;6.57;100.00
74103;BME280;62853;46.166;3.640;2024-03-08T07:17:46;101262.88;;;6.57;100.00
74103;BME280;62853;46.166;3.640;2024-03-08T07:20:13;101264.66;;;6.56;100.00
74103;BME280;62853;46.166;3.640;2024-03-08T07:22:40;101254.28;;;6.53;100.00
74103;BME280;62853;46.166;3.640;2024-03-08T07:25:06;101249.09;;;6.51;100.00
74103;BME280;62853;46.166;3.640;2024-03-08T07:27:48;101256.00;;;6.52;100.00
74103;BME280;62853;46.166;3.640;2024-03-08T07:30:14;101255.81;;;6.59;100.00
74103;BME280;62853;46.166;3.640;2024-03-08T07:32:59;101252.28;;;6.61;100.00
74103;BME280;62853;46.166;3.640;2024-03-08T07:35:25;101245.13;;;6.66;100.00
74103;BME280;62853;46.166;3.640;2024-03-08T07:37:51;101241.53;;;6.69;100.00
74103;BME280;62853;46.166;3.640;2024-03-08T07:40:16;101234.50;;;6.71;100.00
74103;BME280;62853;46.166;3.640;2024-03-08T07:42:43;101231.88;;;6.71;100.00
74103;BME280;62853;46.166;3.640;2024-03-08T07:45:09;101231.81;;;6.73;100.00
74103;BME280;62853;46.166;3.640;2024-03-08T07:47:35;101234.28;;;6.77;100.00
74103;BME280;62853;46.166;3.640;2024-03-08T07:50:01;101233.22;;;6.83;100.00
74103;BME280;62853;46.166;3.640;2024-03-08T07:52:27;101231.16;;;6.93;100.00
74103;BME280;62853;46.166;3.640;2024-03-08T07:54:52;101229.25;;;6.98;100.00
74103;BME280;62853;46.166;3.640;2024-03-08T07:57:18;101233.53;;;7.00;100.00
74103;BME280;62853;46.166;3.640;2024-03-08T07:59:44;101221.19;;;7.04;100.00
74103;BME280;62853;46.166;3.640;2024-03-08T08:02:10;101228.84;;;7.10;100.00
74103;BME280;62853;46.166;3.640;2024-03-08T08:04:35;101220.81;;;7.15;100.00
74103;BME280;62853;46.166;3.640;2024-03-08T08:07:01;101218.06;;;7.19;99.57
74103;BME280;62853;46.166;3.640;2024-03-08T08:09:26;101209.06;;;7.26;100.00
74103;BME280;62853;46.166;3.640;2024-03-08T08:11:59;101203.56;;;7.34;99.71
74103;BME280;62853;46.166;3.640;2024-03-08T08:14:26;101207.66;;;7.41;99.44
74103;BME280;62853;46.166;3.640;2024-03-08T08:16:52;101197.81;;;7.48;98.21
74103;BME280;62853;46.166;3.640;2024-03-08T08:19:18;101201.81;;;7.58;98.75
74103;BME280;62853;46.166;3.640;2024-03-08T08:21:44;101184.09;;;7.65;98.01
74103;BME280;62853;46.166;3.640;2024-03-08T08:24:09;101186.38;;;7.74;97.87
74103;BME280;62853;46.166;3.640;2024-03-08T08:26:36;101190.44;;;7.83;98.36
74103;BME280;62853;46.166;3.640;2024-03-08T08:29:01;101181.34;;;7.92;96.83
74103;BME280;62853;46.166;3.640;2024-03-08T08:31:27;101182.81;;;7.99;95.73
74103;BME280;62853;46.166;3.640;2024-03-08T08:33:52;101180.81;;;8.06;96.41
74103;BME280;62853;46.166;3.640;2024-03-08T08:36:26;101171.88;;;8.11;95.05
74103;BME280;62853;46.166;3.640;2024-03-08T08:38:51;101175.09;;;8.18;94.59
74103;BME280;62853;46.166;3.640;2024-03-08T08:41:21;101180.09;;;8.24;96.66
74103;BME280;62853;46.166;3.640;2024-03-08T08:43:47;101176.38;;;8.30;95.98
74103;BME280;62853;46.166;3.640;2024-03-08T08:46:17;101167.47;;;8.34;95.81
74103;BME280;62853;46.166;3.640;2024-03-08T08:48:42;101168.13;;;8.39;95.68
74103;BME280;62853;46.166;3.640;2024-03-08T08:51:13;101167.09;;;8.43;95.03
74103;BME280;62853;46.166;3.640;2024-03-08T08:53:39;101164.38;;;8.46;95.35
74103;BME280;62853;46.166;3.640;2024-03-08T08:56:11;101156.38;;;8.49;93.50
74103;BME280;62853;46.166;3.640;2024-03-08T08:58:47;101164.13;;;8.52;95.25
74103;BME280;62853;46.166;3.640;2024-03-08T09:01:13;101156.97;;;8.56;95.83
74103;BME280;62853;46.166;3.640;2024-03-08T09:03:38;101144.63;;;8.58;95.05
74103;BME280;62853;46.166;3.640;2024-03-08T09:06:06;101144.50;;;8.61;95.63
74103;BME280;62853;46.166;3.640;2024-03-08T09:08:36;101145.28;;;8.63;94.85
74103;BME280;62853;46.166;3.640;2024-03-08T09:11:01;101140.84;;;8.65;94.51
74103;BME280;62853;46.166;3.640;2024-03-08T09:13:27;101130.19;;;8.68;94.16
74103;BME280;62853;46.166;3.640;2024-03-08T09:15:52;101125.75;;;8.70;94.46
74103;BME280;62853;46.166;3.640;2024-03-08T09:18:18;101112.56;;;8.72;95.16
74103;BME280;62853;46.166;3.640;2024-03-08T09:20:44;101112.41;;;8.75;94.60
74103;BME280;62853;46.166;3.640;2024-03-08T09:23:09;101107.97;;;8.77;94.09
74103;BME280;62853;46.166;3.640;2024-03-08T09:25:35;101103.50;;;8.79;94.42
74103;BME280;62853;46.166;3.640;2024-03-08T09:28:00;101096.41;;;8.81;94.83
74103;BME280;62853;46.166;3.640;2024-03-08T09:30:26;101101.59;;;8.83;95.37
74103;BME280;62853;46.166;3.640;2024-03-08T09:32:51;101091.00;;;8.84;95.72
74103;BME280;62853;46.166;3.640;2024-03-08T09:35:17;101093.50;;;8.87;95.94
74103;BME280;62853;46.166;3.640;2024-03-08T09:37:42;101082.94;;;8.89;95.90
74103;BME280;62853;46.166;3.640;2024-03-08T09:40:08;101070.59;;;8.91;95.40
74103;BME280;62853;46.166;3.640;2024-03-08T09:42:40;101061.63;;;8.95;95.51
74103;BME280;62853;46.166;3.640;2024-03-08T09:45:09;101060.59;;;8.99;94.71
74103;BME280;62853;46.166;3.640;2024-03-08T09:47:44;101057.91;;;9.01;94.62
74103;BME280;62853;46.166;3.640;2024-03-08T09:50:11;101051.63;;;9.03;94.50
74103;BME280;62853;46.166;3.640;2024-03-08T09:52:41;101041.06;;;9.05;95.00
74103;BME280;62853;46.166;3.640;2024-03-08T09:55:10;101043.56;;;9.08;94.97
74103;BME280;62853;46.166;3.640;2024-03-08T09:57:39;101032.97;;;9.09;94.53
74103;BME280;62853;46.166;3.640;2024-03-08T10:00:06;101033.81;;;9.10;94.56
74103;BME280;62853;46.166;3.640;2024-03-08T10:03:02;101021.47;;;9.12;94.13
74103;BME280;62853;46.166;3.640;2024-03-08T10:05:28;101024.97;;;9.12;94.62
74103;BME280;62853;46.166;3.640;2024-03-08T10:07:53;101023.97;;;9.15;94.48
74103;BME280;62853;46.166;3.640;2024-03-08T10:10:19;101016.00;;;9.17;93.65
74103;BME280;62853;46.166;3.640;2024-03-08T10:12:45;101015.94;;;9.18;94.90
74103;BME280;62853;46.166;3.640;2024-03-08T10:15:11;101014.97;;;9.21;95.12
74103;BME280;62853;46.166;3.640;2024-03-08T10:17:37;101011.31;;;9.23;94.93
74103;BME280;62853;46.166;3.640;2024-03-08T10:20:14;100998.09;;;9.25;95.70
74103;BME280;62853;46.166;3.640;2024-03-08T10:22:40;101003.22;;;9.28;96.01
74103;BME280;62853;46.166;3.640;2024-03-08T10:25:12;100992.66;;;9.29;95.70
74103;BME280;62853;46.166;3.640;2024-03-08T10:27:41;100998.69;;;9.31;95.97
74103;BME280;62853;46.166;3.640;2024-03-08T10:30:10;100989.78;;;9.34;95.94
74103;BME280;62853;46.166;3.640;2024-03-08T10:32:38;100981.75;;;9.37;95.25
74103;BME280;62853;46.166;3.640;2024-03-08T10:35:05;100979.06;;;9.39;96.80
74103;BME280;62853;46.166;3.640;2024-03-08T10:37:33;100978.13;;;9.40;95.83
74103;BME280;62853;46.166;3.640;2024-03-08T10:40:04;100971.03;;;9.42;96.12
74103;BME280;62853;46.166;3.640;2024-03-08T10:42:40;100968.31;;;9.43;95.89
74103;BME280;62853;46.166;3.640;2024-03-08T10:45:37;100963.75;;;9.47;95.72
74103;BME280;62853;46.166;3.640;2024-03-08T10:48:28;100962.69;;;9.51;95.52
74103;BME280;62853;46.166;3.640;2024-03-08T10:50:57;100963.56;;;9.52;95.17
74103;BME280;62853;46.166;3.640;2024-03-08T10:53:23;100959.91;;;9.54;94.59
74103;BME280;62853;46.166;3.640;2024-03-08T10:55:49;100943.97;;;9.57;94.08
74103;BME280;62853;46.166;3.640;2024-03-08T10:58:19;100939.44;;;9.61;93.68
74103;BME280;62853;46.166;3.640;2024-03-08T11:00:46;100941.13;;;9.62;91.20
74103;BME280;62853;46.166;3.640;2024-03-08T11:06:08;100938.38;;;9.65;89.94
74103;BME280;62853;46.166;3.640;2024-03-08T11:08:36;100932.09;;;9.67;89.74
74103;BME280;62853;46.166;3.640;2024-03-08T11:11:02;100927.59;;;9.69;89.10
74103;BME280;62853;46.166;3.640;2024-03-08T11:13:41;100926.69;;;9.71;89.22
74103;BME280;62853;46.166;3.640;2024-03-08T11:16:37;100909.09;;;9.71;89.22
74103;BME280;62853;46.166;3.640;2024-03-08T11:19:23;100921.28;;;9.74;87.57
74103;BME280;62853;46.166;3.640;2024-03-08T11:22:06;100911.59;;;9.74;88.92
74103;BME280;62853;46.166;3.640;2024-03-08T11:24:41;100909.72;;;9.76;88.70
74103;BME280;62853;46.166;3.640;2024-03-08T11:27:07;100914.00;;;9.79;88.99
74103;BME280;62853;46.166;3.640;2024-03-08T11:29:35;100908.66;;;9.80;87.02
74103;BME280;62853;46.166;3.640;2024-03-08T11:32:17;100919.19;;;9.80;86.86
74103;BME280;62853;46.166;3.640;2024-03-08T11:34:49;100898.22;;;9.79;86.29
74103;BME280;62853;46.166;3.640;2024-03-08T11:37:19;100897.38;;;9.78;86.52
74103;BME280;62853;46.166;3.640;2024-03-08T11:39:54;100890.31;;;9.79;86.64
74103;BME280;62853;46.166;3.640;2024-03-08T11:42:28;100892.94;;;9.79;85.87
74103;BME280;62853;46.166;3.640;2024-03-08T11:44:53;100885.13;;;9.77;85.68
74103;BME280;62853;46.166;3.640;2024-03-08T11:47:20;100877.31;;;9.76;85.57
74103;BME280;62853;46.166;3.640;2024-03-08T11:49:45;100882.59;;;9.76;86.50
74103;BME280;62853;46.166;3.640;2024-03-08T11:52:14;100883.50;;;9.75;85.99
74103;BME280;62853;46.166;3.640;2024-03-08T11:54:41;100881.75;;;9.75;86.26
74103;BME280;62853;46.166;3.640;2024-03-08T11:57:06;100869.50;;;9.74;85.40
74103;BME280;62853;46.166;3.640;2024-03-08T11:59:32;100868.59;;;9.75;86.30
74103;BME280;62853;46.166;3.640;2024-03-08T12:02:07;100871.22;;;9.75;84.07
74103;BME280;62853;46.166;3.640;2024-03-08T12:04:35;100851.09;;;9.74;83.22
74103;BME280;62853;46.166;3.640;2024-03-08T12:07:01;100857.38;;;9.72;80.93
74103;BME280;62853;46.166;3.640;2024-03-08T12:09:28;100855.66;;;9.71;82.66
74103;BME280;62853;46.166;3.640;2024-03-08T12:11:54;100852.28;;;9.68;83.85
74103;BME280;62853;46.166;3.640;2024-03-08T12:14:19;100852.28;;;9.68;85.88
74103;BME280;62853;46.166;3.640;2024-03-08T12:16:46;100856.59;;;9.69;84.12
74103;BME280;62853;46.166;3.640;2024-03-08T12:19:12;100845.16;;;9.71;83.68
74103;BME280;62853;46.166;3.640;2024-03-08T12:21:37;100848.69;;;9.69;84.13
74103;BME280;62853;46.166;3.640;2024-03-08T12:24:10;100838.16;;;9.69;84.48
74103;BME280;62853;46.166;3.640;2024-03-08T12:26:37;100834.69;;;9.69;83.83
74103;BME280;62853;46.166;3.640;2024-03-08T12:29:25;100839.13;;;9.68;84.06
74103;BME280;62853;46.166;3.640;2024-03-08T12:31:57;100825.03;;;9.69;82.84
74103;BME280;62853;46.166;3.640;2024-03-08T12:34:24;100829.38;;;9.71;82.39
74103;BME280;62853;46.166;3.640;2024-03-08T12:36:51;100821.56;;;9.69;82.46
74103;BME280;62853;46.166;3.640;2024-03-08T12:39:20;100806.63;;;9.69;82.69
74103;BME280;62853;46.166;3.640;2024-03-08T12:41:53;100799.66;;;9.68;81.20
74103;BME280;62853;46.166;3.640;2024-03-08T12:44:20;100812.97;;;9.65;81.24
74103;BME280;62853;46.166;3.640;2024-03-08T12:46:47;100816.28;;;9.69;81.66
74103;BME280;62853;46.166;3.640;2024-03-08T12:49:13;100805.84;;;9.67;81.42
74103;BME280;62853;46.166;3.640;2024-03-08T12:51:43;100800.50;;;9.69;81.01
74103;BME280;62853;46.166;3.640;2024-03-08T12:54:08;100802.31;;;9.68;80.77
74103;BME280;62853;46.166;3.640;2024-03-08T12:56:35;100796.19;;;9.68;80.60